sensor_id;sensor_type;location;lat;lon;timestamp;P1;durP1;ratioP1;P2;durP2;ratioP2
11211;SDS011;5663;50.864;12.096;2023-09-08T00:01:47;11.67;;;6.27;;
11211;SDS011;5663;50.864;12.096;2023-09-08T00:04:17;7.87;;;6.00;;
11211;SDS011;5663;50.864;12.096;2023-09-08T00:07:04;6.63;;;5.10;;
11211;SDS011;5663;50.864;12.096;2023-09-08T00:09:38;8.43;;;6.17;;
11211;SDS011;5663;50.864;12.096;2023-09-08T00:12:16;7.77;;;6.20;;
11211;SDS011;5663;50.864;12.096;2023-09-08T00:14:47;9.03;;;6.77;;
11211;SDS011;5663;50.864;12.096;2023-09-08T00:17:21;8.30;;;6.17;;
11211;SDS011;5663;50.864;12.096;2023-09-08T00:19:59;10.27;;;6.70;;
11211;SDS011;5663;50.864;12.096;2023-09-08T00:22:29;8.07;;;6.73;;
11211;SDS011;5663;50.864;12.096;2023-09-08T00:25:07;9.90;;;6.60;;
11211;SDS011;5663;50.864;12.096;2023-09-08T00:27:37;6.60;;;5.53;;
11211;SDS011;5663;50.864;12.096;2023-09-08T00:30:06;7.27;;;6.47;;
11211;SDS011;5663;50.864;12.096;2023-09-08T00:32:43;7.67;;;6.10;;
11211;SDS011;5663;50.864;12.096;2023-09-08T00:35:35;8.40;;;6.63;;
11211;SDS011;5663;50.864;12.096;2023-09-08T00:38:24;9.23;;;6.50;;
11211;SDS011;5663;50.864;12.096;2023-09-08T00:40:53;7.60;;;6.63;;
11211;SDS011;5663;50.864;12.096;2023-09-08T00:43:27;8.20;;;6.30;;
11211;SDS011;5663;50.864;12.096;2023-09-08T00:46:04;7.87;;;6.23;;
11211;SDS011;5663;50.864;12.096;2023-09-08T00:48:55;8.57;;;6.20;;
11211;SDS011;5663;50.864;12.096;2023-09-08T00:54:55;9.30;;;6.60;;
11211;SDS011;5663;50.864;12.096;2023-09-08T00:57:24;9.17;;;6.17;;
11211;SDS011;5663;50.864;12.096;2023-09-08T01:00:14;8.33;;;6.57;;
11211;SDS011;5663;50.864;12.096;2023-09-08T01:02:48;7.27;;;6.23;;
11211;SDS011;5663;50.864;12.096;2023-09-08T01:05:16;6.97;;;5.87;;
11211;SDS011;5663;50.864;12.096;2023-09-08T01:07:51;7.47;;;6.37;;
11211;SDS011;5663;50.864;12.096;2023-09-08T01:10:30;8.23;;;6.07;;
11211;SDS011;5663;50.864;12.096;2023-09-08T01:12:59;7.47;;;6.67;;
11211;SDS011;5663;50.864;12.096;2023-09-08T01:15:28;7.87;;;6.40;;
11211;SDS011;5663;50.864;12.096;2023-09-08T01:18:02;7.50;;;6.20;;
11211;SDS011;5663;50.864;12.096;2023-09-08T01:20:45;7.93;;;6.40;;
11211;SDS011;5663;50.864;12.096;2023-09-08T01:23:50;7.90;;;5.50;;
11211;SDS011;5663;50.864;12.096;2023-09-08T01:26:55;12.63;;;6.23;;
11211;SDS011;5663;50.864;12.096;2023-09-08T01:29:26;8.20;;;5.93;;
11211;SDS011;5663;50.864;12.096;2023-09-08T01:32:03;12.57;;;6.50;;
11211;SDS011;5663;50.864;12.096;2023-09-08T01:34:32;11.30;;;6.60;;
11211;SDS011;5663;50.864;12.096;2023-09-08T01:37:07;8.53;;;6.60;;
11211;SDS011;5663;50.864;12.096;2023-09-08T01:39:52;7.83;;;6.50;;
11211;SDS011;5663;50.864;12.096;2023-09-08T01:42:23;7.00;;;6.10;;
11211;SDS011;5663;50.864;12.096;2023-09-08T01:44:57;9.70;;;6.93;;
11211;SDS011;5663;50.864;12.096;2023-09-08T01:47:27;9.37;;;6.20;;
11211;SDS011;5663;50.864;12.096;2023-09-08T01:50:02;7.97;;;6.43;;
11211;SDS011;5663;50.864;12.096;2023-09-08T01:52:49;7.90;;;7.10;;
11211;SDS011;5663;50.864;12.096;2023-09-08T01:55:23;7.43;;;6.50;;
11211;SDS011;5663;50.864;12.096;2023-09-08T01:57:54;7.83;;;6.80;;
11211;SDS011;5663;50.864;12.096;2023-09-08T02:00:28;6.70;;;6.00;;
11211;SDS011;5663;50.864;12.096;2023-09-08T02:02:56;8.33;;;6.87;;
11211;SDS011;5663;50.864;12.096;2023-09-08T02:05:32;10.63;;;7.43;;
11211;SDS011;5663;50.864;12.096;2023-09-08T02:08:12;8.53;;;6.70;;
11211;SDS011;5663;50.864;12.096;2023-09-08T02:10:41;8.83;;;7.07;;
11211;SDS011;5663;50.864;12.096;2023-09-08T02:13:43;9.90;;;6.40;;
11211;SDS011;5663;50.864;12.096;2023-09-08T02:16:20;8.07;;;7.03;;
11211;SDS011;5663;50.864;12.096;2023-09-08T02:18:50;8.50;;;7.10;;
11211;SDS011;5663;50.864;12.096;2023-09-08T02:21:21;10.23;;;8.10;;
11211;SDS011;5663;50.864;12.096;2023-09-08T02:23:54;9.57;;;7.10;;
11211;SDS011;5663;50.864;12.096;2023-09-08T02:26:29;9.93;;;7.43;;
11211;SDS011;5663;50.864;12.096;2023-09-08T02:29:11;8.77;;;7.40;;
11211;SDS011;5663;50.864;12.096;2023-09-08T02:31:40;9.60;;;6.80;;
11211;SDS011;5663;50.864;12.096;2023-09-08T02:34:10;9.23;;;7.33;;
11211;SDS011;5663;50.864;12.096;2023-09-08T02:36:43;9.03;;;6.87;;
11211;SDS011;5663;50.864;12.096;2023-09-08T02:39:14;8.83;;;7.63;;
11211;SDS011;5663;50.864;12.096;2023-09-08T02:41:44;10.40;;;7.80;;
11211;SDS011;5663;50.864;12.096;2023-09-08T02:44:44;15.13;;;7.43;;
11211;SDS011;5663;50.864;12.096;2023-09-08T02:47:15;12.23;;;8.17;;
11211;SDS011;5663;50.864;12.096;2023-09-08T02:49:44;11.20;;;7.90;;
11211;SDS011;5663;50.864;12.096;2023-09-08T02:52:13;10.07;;;7.87;;
11211;SDS011;5663;50.864;12.096;2023-09-08T02:54:43;9.27;;;6.83;;
11211;SDS011;5663;50.864;12.096;2023-09-08T02:57:13;9.50;;;6.67;;
11211;SDS011;5663;50.864;12.096;2023-09-08T02:59:51;12.63;;;7.57;;
11211;SDS011;5663;50.864;12.096;2023-09-08T03:02:24;13.90;;;7.50;;
11211;SDS011;5663;50.864;12.096;2023-09-08T03:07:56;9.33;;;7.90;;
11211;SDS011;5663;50.864;12.096;2023-09-08T03:10:29;8.87;;;6.87;;
11211;SDS011;5663;50.864;12.096;2023-09-08T03:13:00;8.70;;;7.43;;
11211;SDS011;5663;50.864;12.096;2023-09-08T03:15:48;9.07;;;7.23;;
11211;SDS011;5663;50.864;12.096;2023-09-08T03:18:19;10.40;;;7.53;;
11211;SDS011;5663;50.864;12.096;2023-09-08T03:21:07;11.47;;;7.10;;
11211;SDS011;5663;50.864;12.096;2023-09-08T03:23:42;11.87;;;8.03;;
11211;SDS011;5663;50.864;12.096;2023-09-08T03:26:15;10.17;;;8.10;;
11211;SDS011;5663;50.864;12.096;2023-09-08T03:28:45;7.87;;;6.47;;
11211;SDS011;5663;50.864;12.096;2023-09-08T03:31:15;12.70;;;7.07;;
11211;SDS011;5663;50.864;12.096;2023-09-08T03:33:45;11.40;;;6.87;;
11211;SDS011;5663;50.864;12.096;2023-09-08T03:36:21;7.13;;;6.23;;
11211;SDS011;5663;50.864;12.096;2023-09-08T03:39:01;12.33;;;8.77;;
11211;SDS011;5663;50.864;12.096;2023-09-08T03:41:35;8.87;;;7.60;;
11211;SDS011;5663;50.864;12.096;2023-09-08T03:44:22;10.93;;;8.20;;
11211;SDS011;5663;50.864;12.096;2023-09-08T03:47:01;10.47;;;8.13;;
11211;SDS011;5663;50.864;12.096;2023-09-08T03:49:39;8.53;;;7.00;;
11211;SDS011;5663;50.864;12.096;2023-09-08T03:52:25;8.63;;;6.57;;
11211;SDS011;5663;50.864;12.096;2023-09-08T03:55:11;11.40;;;8.33;;
11211;SDS011;5663;50.864;12.096;2023-09-08T03:57:49;9.33;;;7.77;;
11211;SDS011;5663;50.864;12.096;2023-09-08T04:13:11;10.73;;;8.00;;
11211;SDS011;5663;50.864;12.096;2023-09-08T04:16:00;10.87;;;7.80;;
11211;SDS011;5663;50.864;12.096;2023-09-08T04:18:30;9.47;;;6.97;;
11211;SDS011;5663;50.864;12.096;2023-09-08T04:21:18;8.53;;;7.23;;
11211;SDS011;5663;50.864;12.096;2023-09-08T04:23:46;11.03;;;8.07;;
11211;SDS011;5663;50.864;12.096;2023-09-08T04:26:20;10.77;;;7.60;;
11211;SDS011;5663;50.864;12.096;2023-09-08T04:28:51;9.97;;;8.07;;
11211;SDS011;5663;50.864;12.096;2023-09-08T04:31:34;10.10;;;6.90;;
11211;SDS011;5663;50.864;12.096;2023-09-08T04:34:02;10.77;;;7.87;;
11211;SDS011;5663;50.864;12.096;2023-09-08T04:36:49;10.53;;;7.67;;
11211;SDS011;5663;50.864;12.096;2023-09-08T04:39:36;14.43;;;8.80;;
11211;SDS011;5663;50.864;12.096;2023-09-08T04:42:07;10.60;;;8.23;;
11211;SDS011;5663;50.864;12.096;2023-09-08T04:44:37;8.97;;;6.83;;
11211;SDS011;5663;50.864;12.096;2023-09-08T04:47:06;9.87;;;7.70;;
11211;SDS011;5663;50.864;12.096;2023-09-08T04:49:52;10.60;;;7.63;;
11211;SDS011;5663;50.864;12.096;2023-09-08T04:52:21;10.63;;;7.80;;
11211;SDS011;5663;50.864;12.096;2023-09-08T04:54:51;9.30;;;7.77;;
11211;SDS011;5663;50.864;12.096;2023-09-08T04:57:39;7.77;;;6.60;;
11211;SDS011;5663;50.864;12.096;2023-09-08T05:00:09;10.23;;;7.97;;
11211;SDS011;5663;50.864;12.096;2023-09-08T05:02:41;8.53;;;7.63;;
11211;SDS011;5663;50.864;12.096;2023-09-08T05:05:12;10.63;;;8.17;;
11211;SDS011;5663;50.864;12.096;2023-09-08T05:08:07;10.83;;;8.63;;
11211;SDS011;5663;50.864;12.096;2023-09-08T05:10:37;10.67;;;7.97;;
11211;SDS011;5663;50.864;12.096;2023-09-08T05:13:07;10.70;;;8.40;;
11211;SDS011;5663;50.864;12.096;2023-09-08T05:15:43;10.13;;;7.70;;
11211;SDS011;5663;50.864;12.096;2023-09-08T05:18:16;9.03;;;7.93;;
11211;SDS011;5663;50.864;12.096;2023-09-08T05:21:24;9.73;;;6.63;;
11211;SDS011;5663;50.864;12.096;2023-09-08T05:23:56;9.43;;;7.83;;
11211;SDS011;5663;50.864;12.096;2023-09-08T05:26:33;9.17;;;7.53;;
11211;SDS011;5663;50.864;12.096;2023-09-08T05:29:05;9.83;;;7.00;;
11211;SDS011;5663;50.864;12.096;2023-09-08T05:32:00;12.53;;;8.03;;
11211;SDS011;5663;50.864;12.096;2023-09-08T05:34:37;9.83;;;8.20;;
11211;SDS011;5663;50.864;12.096;2023-09-08T05:37:08;10.73;;;7.83;;
11211;SDS011;5663;50.864;12.096;2023-09-08T05:39:38;10.43;;;8.53;;
11211;SDS011;5663;50.864;12.096;2023-09-08T05:42:08;9.63;;;8.00;;
11211;SDS011;5663;50.864;12.096;2023-09-08T05:44:49;10.20;;;7.90;;
11211;SDS011;5663;50.864;12.096;2023-09-08T05:47:28;8.37;;;6.53;;
11211;SDS011;5663;50.864;12.096;2023-09-08T05:50:25;10.47;;;7.73;;
11211;SDS011;5663;50.864;12.096;2023-09-08T05:53:14;7.80;;;6.40;;
11211;SDS011;5663;50.864;12.096;2023-09-08T05:56:02;11.13;;;7.60;;
11211;SDS011;5663;50.864;12.096;2023-09-08T05:58:40;11.50;;;8.23;;
11211;SDS011;5663;50.864;12.096;2023-09-08T06:01:10;7.67;;;6.83;;
11211;SDS011;5663;50.864;12.096;2023-09-08T06:03:40;11.90;;;7.17;;
11211;SDS011;5663;50.864;12.096;2023-09-08T06:06:29;13.53;;;8.67;;
11211;SDS011;5663;50.864;12.096;2023-09-08T06:09:05;9.67;;;8.37;;
11211;SDS011;5663;50.864;12.096;2023-09-08T06:11:57;10.63;;;8.13;;
11211;SDS011;5663;50.864;12.096;2023-09-08T06:22:18;10.10;;;8.03;;
11211;SDS011;5663;50.864;12.096;2023-09-08T06:24:49;11.50;;;8.83;;
11211;SDS011;5663;50.864;12.096;2023-09-08T06:27:38;28.43;;;10.90;;
11211;SDS011;5663;50.864;12.096;2023-09-08T06:33:31;13.60;;;9.57;;
11211;SDS011;5663;50.864;12.096;2023-09-08T06:46:23;21.33;;;10.57;;
11211;SDS011;5663;50.864;12.096;2023-09-08T06:49:23;9.77;;;8.03;;
11211;SDS011;5663;50.864;12.096;2023-09-08T06:51:58;18.10;;;10.43;;
11211;SDS011;5663;50.864;12.096;2023-09-08T06:54:40;12.73;;;10.10;;
11211;SDS011;5663;50.864;12.096;2023-09-08T07:03:33;12.37;;;10.03;;
11211;SDS011;5663;50.864;12.096;2023-09-08T07:06:07;11.37;;;9.70;;
11211;SDS011;5663;50.864;12.096;2023-09-08T07:08:59;14.23;;;9.77;;
11211;SDS011;5663;50.864;12.096;2023-09-08T07:11:54;16.30;;;10.33;;
11211;SDS011;5663;50.864;12.096;2023-09-08T07:14:52;13.93;;;10.23;;
11211;SDS011;5663;50.864;12.096;2023-09-08T07:23:37;12.97;;;10.73;;
11211;SDS011;5663;50.864;12.096;2023-09-08T07:26:07;11.30;;;9.47;;
11211;SDS011;5663;50.864;12.096;2023-09-08T07:28:37;12.63;;;9.97;;
11211;SDS011;5663;50.864;12.096;2023-09-08T07:31:08;14.17;;;11.23;;
11211;SDS011;5663;50.864;12.096;2023-09-08T07:37:18;12.37;;;10.37;;
11211;SDS011;5663;50.864;12.096;2023-09-08T07:39:57;12.10;;;10.70;;
11211;SDS011;5663;50.864;12.096;2023-09-08T07:42:29;15.23;;;9.80;;
11211;SDS011;5663;50.864;12.096;2023-09-08T07:45:09;11.57;;;9.70;;
11211;SDS011;5663;50.864;12.096;2023-09-08T09:17:42;7.20;;;5.57;;
11211;SDS011;5663;50.864;12.096;2023-09-08T09:21:01;7.53;;;6.10;;
11211;SDS011;5663;50.864;12.096;2023-09-08T09:23:57;6.47;;;5.30;;
11211;SDS011;5663;50.864;12.096;2023-09-08T09:26:37;5.97;;;5.37;;
11211;SDS011;5663;50.864;12.096;2023-09-08T09:29:20;8.27;;;5.47;;
11211;SDS011;5663;50.864;12.096;2023-09-08T09:33:03;8.23;;;5.32;;
11211;SDS011;5663;50.864;12.096;2023-09-08T09:35:41;5.53;;;4.93;;
11211;SDS011;5663;50.864;12.096;2023-09-08T09:38:13;8.02;;;4.45;;
11211;SDS011;5663;50.864;12.096;2023-09-08T09:40:48;5.30;;;4.32;;
11211;SDS011;5663;50.864;12.096;2023-09-08T10:04:09;7.18;;;3.80;;
11211;SDS011;5663;50.864;12.096;2023-09-08T10:07:02;6.47;;;3.70;;
11211;SDS011;5663;50.864;12.096;2023-09-08T10:09:35;8.27;;;4.28;;
11211;SDS011;5663;50.864;12.096;2023-09-08T10:12:08;4.20;;;3.80;;
11211;SDS011;5663;50.864;12.096;2023-09-08T10:14:47;4.45;;;4.00;;
11211;SDS011;5663;50.864;12.096;2023-09-08T10:42:24;6.35;;;3.83;;
11211;SDS011;5663;50.864;12.096;2023-09-08T10:52:17;4.55;;;3.92;;
11211;SDS011;5663;50.864;12.096;2023-09-08T10:55:37;4.75;;;4.25;;
11211;SDS011;5663;50.864;12.096;2023-09-08T10:58:58;6.57;;;4.20;;
11211;SDS011;5663;50.864;12.096;2023-09-08T11:01:57;5.90;;;3.90;;
11211;SDS011;5663;50.864;12.096;2023-09-08T11:27:47;5.88;;;3.90;;
11211;SDS011;5663;50.864;12.096;2023-09-08T11:30:18;5.57;;;4.00;;
11211;SDS011;5663;50.864;12.096;2023-09-08T11:45:47;9.77;;;4.53;;
11211;SDS011;5663;50.864;12.096;2023-09-08T11:49:20;4.60;;;3.90;;
11211;SDS011;5663;50.864;12.096;2023-09-08T11:52:06;4.60;;;3.75;;
11211;SDS011;5663;50.864;12.096;2023-09-08T12:08:20;9.57;;;3.60;;
11211;SDS011;5663;50.864;12.096;2023-09-08T12:50:12;6.25;;;3.85;;
11211;SDS011;5663;50.864;12.096;2023-09-08T13:25:55;8.38;;;4.65;;
11211;SDS011;5663;50.864;12.096;2023-09-08T13:28:30;4.75;;;4.32;;
11211;SDS011;5663;50.864;12.096;2023-09-08T13:34:48;5.35;;;4.28;;
11211;SDS011;5663;50.864;12.096;2023-09-08T13:37:18;7.05;;;4.68;;
11211;SDS011;5663;50.864;12.096;2023-09-08T13:39:53;5.82;;;4.18;;
11211;SDS011;5663;50.864;12.096;2023-09-08T13:42:26;5.68;;;4.32;;
11211;SDS011;5663;50.864;12.096;2023-09-08T13:45:16;5.43;;;4.03;;
11211;SDS011;5663;50.864;12.096;2023-09-08T14:11:54;3.95;;;3.55;;
11211;SDS011;5663;50.864;12.096;2023-09-08T14:22:38;4.20;;;3.80;;
11211;SDS011;5663;50.864;12.096;2023-09-08T14:25:27;4.30;;;3.85;;
11211;SDS011;5663;50.864;12.096;2023-09-08T14:35:28;5.68;;;3.85;;
11211;SDS011;5663;50.864;12.096;2023-09-08T14:38:04;9.60;;;4.47;;
11211;SDS011;5663;50.864;12.096;2023-09-08T14:41:11;9.02;;;4.35;;
11211;SDS011;5663;50.864;12.096;2023-09-08T14:44:03;5.07;;;4.10;;
11211;SDS011;5663;50.864;12.096;2023-09-08T14:46:55;4.93;;;4.07;;
11211;SDS011;5663;50.864;12.096;2023-09-08T14:53:16;5.78;;;4.00;;
11211;SDS011;5663;50.864;12.096;2023-09-08T14:55:52;6.85;;;3.95;;
11211;SDS011;5663;50.864;12.096;2023-09-08T15:14:15;6.55;;;3.78;;
11211;SDS011;5663;50.864;12.096;2023-09-08T15:17:11;6.75;;;3.67;;
11211;SDS011;5663;50.864;12.096;2023-09-08T15:31:23;3.17;;;2.92;;
11211;SDS011;5663;50.864;12.096;2023-09-08T16:03:43;5.85;;;3.80;;
11211;SDS011;5663;50.864;12.096;2023-09-08T16:07:12;8.88;;;4.00;;
11211;SDS011;5663;50.864;12.096;2023-09-08T16:24:39;6.75;;;3.47;;
11211;SDS011;5663;50.864;12.096;2023-09-08T16:27:49;7.20;;;3.70;;
11211;SDS011;5663;50.864;12.096;2023-09-08T16:46:01;4.22;;;3.40;;
11211;SDS011;5663;50.864;12.096;2023-09-08T16:49:35;6.95;;;3.55;;
11211;SDS011;5663;50.864;12.096;2023-09-08T18:12:25;4.97;;;3.88;;
11211;SDS011;5663;50.864;12.096;2023-09-08T18:15:40;4.78;;;3.67;;
11211;SDS011;5663;50.864;12.096;2023-09-08T19:51:30;5.50;;;4.13;;
11211;SDS011;5663;50.864;12.096;2023-09-08T19:54:01;6.53;;;4.80;;
11211;SDS011;5663;50.864;12.096;2023-09-08T19:56:44;11.37;;;5.10;;
11211;SDS011;5663;50.864;12.096;2023-09-08T19:59:25;5.87;;;5.07;;
11211;SDS011;5663;50.864;12.096;2023-09-08T20:01:57;6.13;;;5.27;;
11211;SDS011;5663;50.864;12.096;2023-09-08T20:04:26;9.50;;;5.13;;
11211;SDS011;5663;50.864;12.096;2023-09-08T20:07:12;8.63;;;5.73;;
11211;SDS011;5663;50.864;12.096;2023-09-08T20:09:43;7.27;;;5.00;;
11211;SDS011;5663;50.864;12.096;2023-09-08T20:12:20;5.97;;;5.13;;
11211;SDS011;5663;50.864;12.096;2023-09-08T20:15:12;5.53;;;4.93;;
11211;SDS011;5663;50.864;12.096;2023-09-08T20:17:42;13.07;;;5.73;;
11211;SDS011;5663;50.864;12.096;2023-09-08T20:20:33;7.57;;;4.70;;
11211;SDS011;5663;50.864;12.096;2023-09-08T20:23:02;5.80;;;5.20;;
11211;SDS011;5663;50.864;12.096;2023-09-08T20:25:35;6.00;;;5.40;;
11211;SDS011;5663;50.864;12.096;2023-09-08T20:28:19;5.50;;;4.90;;
11211;SDS011;5663;50.864;12.096;2023-09-08T20:31:24;7.20;;;5.37;;
11211;SDS011;5663;50.864;12.096;2023-09-08T20:37:31;5.87;;;5.27;;
11211;SDS011;5663;50.864;12.096;2023-09-08T20:40:21;5.97;;;5.10;;
11211;SDS011;5663;50.864;12.096;2023-09-08T20:42:58;8.53;;;5.93;;
11211;SDS011;5663;50.864;12.096;2023-09-08T20:46:15;10.97;;;5.80;;
11211;SDS011;5663;50.864;12.096;2023-09-08T20:49:38;5.67;;;4.90;;
11211;SDS011;5663;50.864;12.096;2023-09-08T20:52:14;7.90;;;5.10;;
11211;SDS011;5663;50.864;12.096;2023-09-08T20:55:25;6.90;;;5.80;;
11211;SDS011;5663;50.864;12.096;2023-09-08T20:58:22;8.67;;;4.77;;
11211;SDS011;5663;50.864;12.096;2023-09-08T21:01:39;7.80;;;5.33;;
11211;SDS011;5663;50.864;12.096;2023-09-08T21:04:13;11.10;;;5.03;;
11211;SDS011;5663;50.864;12.096;2023-09-08T21:07:08;8.43;;;5.70;;
11211;SDS011;5663;50.864;12.096;2023-09-08T21:13:39;7.03;;;5.40;;
11211;SDS011;5663;50.864;12.096;2023-09-08T21:17:18;6.67;;;5.17;;
11211;SDS011;5663;50.864;12.096;2023-09-08T21:19:53;7.40;;;6.30;;
11211;SDS011;5663;50.864;12.096;2023-09-08T21:22:53;6.57;;;5.17;;
11211;SDS011;5663;50.864;12.096;2023-09-08T21:26:07;7.13;;;5.03;;
11211;SDS011;5663;50.864;12.096;2023-09-08T21:29:03;7.93;;;5.97;;
11211;SDS011;5663;50.864;12.096;2023-09-08T21:32:33;6.77;;;5.37;;
11211;SDS011;5663;50.864;12.096;2023-09-08T21:35:18;11.17;;;6.07;;
11211;SDS011;5663;50.864;12.096;2023-09-08T21:38:03;7.57;;;5.50;;
11211;SDS011;5663;50.864;12.096;2023-09-08T21:41:49;7.30;;;5.80;;
11211;SDS011;5663;50.864;12.096;2023-09-08T21:55:02;11.80;;;5.80;;
11211;SDS011;5663;50.864;12.096;2023-09-08T21:58:26;8.43;;;6.30;;
11211;SDS011;5663;50.864;12.096;2023-09-08T22:01:01;8.53;;;6.10;;
11211;SDS011;5663;50.864;12.096;2023-09-08T22:05:50;9.23;;;5.73;;
11211;SDS011;5663;50.864;12.096;2023-09-08T22:14:43;9.43;;;6.53;;
11211;SDS011;5663;50.864;12.096;2023-09-08T22:18:33;6.57;;;5.60;;
11211;SDS011;5663;50.864;12.096;2023-09-08T22:21:40;6.83;;;5.87;;
11211;SDS011;5663;50.864;12.096;2023-09-08T23:33:21;8.90;;;6.33;;
